sensor_id;sensor_type;location;lat;lon;timestamp;P1;durP1;ratioP1;P2;durP2;ratioP2
70008;SDS011;59542;37.950;-122.338;2022-08-03T00:00:41;5.35;;;2.88;;
70008;SDS011;59542;37.950;-122.338;2022-08-03T00:03:07;6.25;;;3.20;;
70008;SDS011;59542;37.950;-122.338;2022-08-03T00:05:34;6.60;;;3.00;;
70008;SDS011;59542;37.950;-122.338;2022-08-03T00:08:00;8.25;;;3.30;;
70008;SDS011;59542;37.950;-122.338;2022-08-03T00:10:27;6.50;;;3.20;;
70008;SDS011;59542;37.950;-122.338;2022-08-03T00:12:53;7.65;;;3.97;;
70008;SDS011;59542;37.950;-122.338;2022-08-03T00:15:19;6.95;;;2.88;;
70008;SDS011;59542;37.950;-122.338;2022-08-03T00:17:45;6.43;;;3.45;;
70008;SDS011;59542;37.950;-122.338;2022-08-03T00:20:12;7.13;;;3.40;;
70008;SDS011;59542;37.950;-122.338;2022-08-03T00:22:38;7.57;;;3.00;;
70008;SDS011;59542;37.950;-122.338;2022-08-03T00:25:04;5.30;;;2.88;;
70008;SDS011;59542;37.950;-122.338;2022-08-03T00:27:31;7.10;;;3.95;;
70008;SDS011;59542;37.950;-122.338;2022-08-03T00:29:58;4.88;;;3.17;;
70008;SDS011;59542;37.950;-122.338;2022-08-03T00:32:24;7.00;;;3.35;;
70008;SDS011;59542;37.950;-122.338;2022-08-03T00:34:50;8.75;;;3.38;;
70008;SDS011;59542;37.950;-122.338;2022-08-03T00:37:16;7.53;;;3.50;;
70008;SDS011;59542;37.950;-122.338;2022-08-03T00:39:43;5.35;;;3.20;;
70008;SDS011;59542;37.950;-122.338;2022-08-03T00:42:11;9.40;;;3.50;;
70008;SDS011;59542;37.950;-122.338;2022-08-03T00:44:41;8.10;;;3.28;;
70008;SDS011;59542;37.950;-122.338;2022-08-03T00:47:08;6.43;;;3.30;;
70008;SDS011;59542;37.950;-122.338;2022-08-03T00:49:35;8.25;;;3.67;;
70008;SDS011;59542;37.950;-122.338;2022-08-03T00:52:02;7.68;;;3.75;;
70008;SDS011;59542;37.950;-122.338;2022-08-03T00:54:28;8.15;;;3.70;;
70008;SDS011;59542;37.950;-122.338;2022-08-03T00:56:55;13.50;;;3.63;;
70008;SDS011;59542;37.950;-122.338;2022-08-03T00:59:21;11.52;;;4.13;;
70008;SDS011;59542;37.950;-122.338;2022-08-03T01:01:47;8.15;;;3.60;;
70008;SDS011;59542;37.950;-122.338;2022-08-03T01:04:14;7.82;;;4.05;;
70008;SDS011;59542;37.950;-122.338;2022-08-03T01:07:24;7.60;;;3.72;;
70008;SDS011;59542;37.950;-122.338;2022-08-03T01:09:52;7.10;;;3.42;;
70008;SDS011;59542;37.950;-122.338;2022-08-03T01:16:11;9.65;;;4.00;;
70008;SDS011;59542;37.950;-122.338;2022-08-03T01:30:44;7.63;;;3.60;;
70008;SDS011;59542;37.950;-122.338;2022-08-03T01:33:19;7.95;;;4.07;;
70008;SDS011;59542;37.950;-122.338;2022-08-03T01:35:53;11.90;;;3.97;;
70008;SDS011;59542;37.950;-122.338;2022-08-03T01:38:33;9.75;;;3.95;;
70008;SDS011;59542;37.950;-122.338;2022-08-03T01:41:12;8.27;;;3.72;;
70008;SDS011;59542;37.950;-122.338;2022-08-03T01:43:43;8.00;;;3.63;;
70008;SDS011;59542;37.950;-122.338;2022-08-03T01:46:14;8.60;;;3.85;;
70008;SDS011;59542;37.950;-122.338;2022-08-03T01:48:43;9.93;;;4.18;;
70008;SDS011;59542;37.950;-122.338;2022-08-03T01:51:11;7.22;;;4.15;;
70008;SDS011;59542;37.950;-122.338;2022-08-03T01:53:41;8.98;;;4.15;;
70008;SDS011;59542;37.950;-122.338;2022-08-03T01:56:07;6.75;;;3.60;;
70008;SDS011;59542;37.950;-122.338;2022-08-03T01:58:35;13.10;;;4.38;;
70008;SDS011;59542;37.950;-122.338;2022-08-03T02:01:04;6.63;;;3.78;;
70008;SDS011;59542;37.950;-122.338;2022-08-03T02:03:32;12.10;;;3.95;;
70008;SDS011;59542;37.950;-122.338;2022-08-03T02:06:02;8.55;;;3.83;;
70008;SDS011;59542;37.950;-122.338;2022-08-03T02:08:31;8.25;;;3.97;;
70008;SDS011;59542;37.950;-122.338;2022-08-03T02:10:58;10.95;;;3.85;;
70008;SDS011;59542;37.950;-122.338;2022-08-03T02:13:26;8.93;;;3.35;;
70008;SDS011;59542;37.950;-122.338;2022-08-03T02:15:55;10.07;;;3.70;;
70008;SDS011;59542;37.950;-122.338;2022-08-03T02:18:22;6.30;;;3.28;;
70008;SDS011;59542;37.950;-122.338;2022-08-03T02:20:50;16.83;;;3.85;;
70008;SDS011;59542;37.950;-122.338;2022-08-03T02:23:17;7.13;;;3.72;;
70008;SDS011;59542;37.950;-122.338;2022-08-03T02:25:45;8.98;;;4.10;;
70008;SDS011;59542;37.950;-122.338;2022-08-03T02:28:21;6.82;;;3.67;;
70008;SDS011;59542;37.950;-122.338;2022-08-03T02:30:56;10.70;;;3.45;;
70008;SDS011;59542;37.950;-122.338;2022-08-03T02:33:27;6.13;;;3.40;;
70008;SDS011;59542;37.950;-122.338;2022-08-03T02:35:57;7.35;;;3.63;;
70008;SDS011;59542;37.950;-122.338;2022-08-03T02:38:27;8.00;;;3.28;;
70008;SDS011;59542;37.950;-122.338;2022-08-03T02:40:58;8.23;;;3.50;;
70008;SDS011;59542;37.950;-122.338;2022-08-03T02:43:29;7.38;;;3.67;;
70008;SDS011;59542;37.950;-122.338;2022-08-03T02:45:57;10.15;;;3.97;;
70008;SDS011;59542;37.950;-122.338;2022-08-03T02:48:24;10.93;;;4.07;;
70008;SDS011;59542;37.950;-122.338;2022-08-03T02:50:54;6.95;;;4.30;;
70008;SDS011;59542;37.950;-122.338;2022-08-03T02:53:23;8.75;;;4.38;;
70008;SDS011;59542;37.950;-122.338;2022-08-03T02:55:50;10.05;;;4.40;;
70008;SDS011;59542;37.950;-122.338;2022-08-03T02:58:18;8.15;;;3.90;;
70008;SDS011;59542;37.950;-122.338;2022-08-03T03:00:46;11.50;;;4.13;;
70008;SDS011;59542;37.950;-122.338;2022-08-03T03:03:16;10.13;;;4.28;;
70008;SDS011;59542;37.950;-122.338;2022-08-03T03:05:43;10.77;;;4.45;;
70008;SDS011;59542;37.950;-122.338;2022-08-03T03:08:14;10.23;;;4.60;;
70008;SDS011;59542;37.950;-122.338;2022-08-03T03:10:43;12.50;;;4.43;;
70008;SDS011;59542;37.950;-122.338;2022-08-03T03:13:10;9.00;;;4.38;;
70008;SDS011;59542;37.950;-122.338;2022-08-03T03:15:38;8.70;;;4.43;;
70008;SDS011;59542;37.950;-122.338;2022-08-03T03:18:05;6.75;;;4.50;;
70008;SDS011;59542;37.950;-122.338;2022-08-03T03:20:34;9.02;;;4.43;;
70008;SDS011;59542;37.950;-122.338;2022-08-03T03:23:01;12.82;;;5.13;;
70008;SDS011;59542;37.950;-122.338;2022-08-03T03:25:30;11.23;;;4.63;;
70008;SDS011;59542;37.950;-122.338;2022-08-03T03:27:58;10.68;;;4.82;;
70008;SDS011;59542;37.950;-122.338;2022-08-03T03:30:26;7.82;;;5.05;;
70008;SDS011;59542;37.950;-122.338;2022-08-03T03:32:52;12.48;;;5.32;;
70008;SDS011;59542;37.950;-122.338;2022-08-03T03:35:19;10.02;;;5.07;;
70008;SDS011;59542;37.950;-122.338;2022-08-03T03:37:45;13.95;;;5.60;;
70008;SDS011;59542;37.950;-122.338;2022-08-03T03:40:12;11.90;;;5.45;;
70008;SDS011;59542;37.950;-122.338;2022-08-03T03:42:39;12.30;;;4.97;;
70008;SDS011;59542;37.950;-122.338;2022-08-03T03:45:06;13.02;;;4.97;;
70008;SDS011;59542;37.950;-122.338;2022-08-03T03:47:33;9.10;;;5.57;;
70008;SDS011;59542;37.950;-122.338;2022-08-03T03:50:03;7.93;;;4.53;;
70008;SDS011;59542;37.950;-122.338;2022-08-03T03:52:31;12.18;;;5.40;;
70008;SDS011;59542;37.950;-122.338;2022-08-03T03:54:58;9.38;;;5.10;;
70008;SDS011;59542;37.950;-122.338;2022-08-03T03:57:24;14.70;;;5.55;;
70008;SDS011;59542;37.950;-122.338;2022-08-03T03:59:50;12.35;;;5.32;;
70008;SDS011;59542;37.950;-122.338;2022-08-03T04:02:17;10.27;;;4.53;;
70008;SDS011;59542;37.950;-122.338;2022-08-03T04:04:43;9.43;;;4.80;;
70008;SDS011;59542;37.950;-122.338;2022-08-03T04:07:28;10.47;;;4.90;;
70008;SDS011;59542;37.950;-122.338;2022-08-03T04:10:22;8.93;;;4.68;;
70008;SDS011;59542;37.950;-122.338;2022-08-03T04:13:12;10.95;;;5.07;;
70008;SDS011;59542;37.950;-122.338;2022-08-03T04:15:41;9.75;;;5.25;;
70008;SDS011;59542;37.950;-122.338;2022-08-03T04:18:08;6.82;;;4.55;;
70008;SDS011;59542;37.950;-122.338;2022-08-03T04:20:38;12.40;;;5.15;;
70008;SDS011;59542;37.950;-122.338;2022-08-03T04:23:09;11.52;;;5.32;;
70008;SDS011;59542;37.950;-122.338;2022-08-03T04:25:38;9.65;;;5.03;;
70008;SDS011;59542;37.950;-122.338;2022-08-03T04:28:06;14.65;;;5.30;;
70008;SDS011;59542;37.950;-122.338;2022-08-03T04:30:35;9.18;;;5.05;;
70008;SDS011;59542;37.950;-122.338;2022-08-03T04:33:03;7.15;;;4.90;;
70008;SDS011;59542;37.950;-122.338;2022-08-03T04:35:31;9.07;;;5.00;;
70008;SDS011;59542;37.950;-122.338;2022-08-03T04:38:00;12.20;;;5.43;;
70008;SDS011;59542;37.950;-122.338;2022-08-03T04:40:34;9.38;;;4.88;;
70008;SDS011;59542;37.950;-122.338;2022-08-03T04:43:04;12.40;;;5.38;;
70008;SDS011;59542;37.950;-122.338;2022-08-03T04:45:32;9.38;;;4.88;;
70008;SDS011;59542;37.950;-122.338;2022-08-03T04:47:59;8.38;;;4.47;;
70008;SDS011;59542;37.950;-122.338;2022-08-03T04:50:26;10.70;;;4.85;;
70008;SDS011;59542;37.950;-122.338;2022-08-03T04:52:53;13.43;;;5.43;;
70008;SDS011;59542;37.950;-122.338;2022-08-03T04:55:29;7.50;;;4.85;;
70008;SDS011;59542;37.950;-122.338;2022-08-03T04:57:58;11.77;;;5.40;;
70008;SDS011;59542;37.950;-122.338;2022-08-03T05:00:25;9.32;;;4.95;;
70008;SDS011;59542;37.950;-122.338;2022-08-03T05:02:52;14.90;;;4.90;;
70008;SDS011;59542;37.950;-122.338;2022-08-03T05:05:18;9.50;;;5.43;;
70008;SDS011;59542;37.950;-122.338;2022-08-03T05:07:45;7.68;;;4.43;;
70008;SDS011;59542;37.950;-122.338;2022-08-03T05:10:12;7.20;;;4.55;;
70008;SDS011;59542;37.950;-122.338;2022-08-03T05:12:38;8.10;;;4.18;;
70008;SDS011;59542;37.950;-122.338;2022-08-03T05:15:05;7.57;;;4.88;;
70008;SDS011;59542;37.950;-122.338;2022-08-03T05:17:32;13.68;;;5.60;;
70008;SDS011;59542;37.950;-122.338;2022-08-03T05:19:58;9.15;;;5.50;;
70008;SDS011;59542;37.950;-122.338;2022-08-03T05:22:25;9.75;;;4.93;;
70008;SDS011;59542;37.950;-122.338;2022-08-03T05:24:51;7.07;;;4.90;;
70008;SDS011;59542;37.950;-122.338;2022-08-03T05:27:17;7.32;;;4.80;;
70008;SDS011;59542;37.950;-122.338;2022-08-03T05:29:44;8.90;;;4.80;;
70008;SDS011;59542;37.950;-122.338;2022-08-03T05:32:11;9.95;;;4.55;;
70008;SDS011;59542;37.950;-122.338;2022-08-03T05:34:37;9.57;;;5.57;;
70008;SDS011;59542;37.950;-122.338;2022-08-03T05:37:03;6.63;;;4.68;;
70008;SDS011;59542;37.950;-122.338;2022-08-03T05:39:31;7.88;;;5.25;;
70008;SDS011;59542;37.950;-122.338;2022-08-03T05:41:58;7.97;;;4.88;;
70008;SDS011;59542;37.950;-122.338;2022-08-03T05:44:24;8.20;;;4.97;;
70008;SDS011;59542;37.950;-122.338;2022-08-03T05:46:51;6.97;;;4.30;;
70008;SDS011;59542;37.950;-122.338;2022-08-03T05:49:17;7.75;;;4.50;;
70008;SDS011;59542;37.950;-122.338;2022-08-03T05:51:44;8.80;;;4.78;;
70008;SDS011;59542;37.950;-122.338;2022-08-03T05:54:11;9.00;;;4.80;;
70008;SDS011;59542;37.950;-122.338;2022-08-03T05:56:37;6.35;;;4.38;;
70008;SDS011;59542;37.950;-122.338;2022-08-03T05:59:05;6.32;;;4.63;;
70008;SDS011;59542;37.950;-122.338;2022-08-03T06:01:31;6.57;;;4.57;;
70008;SDS011;59542;37.950;-122.338;2022-08-03T06:03:58;8.30;;;4.40;;
70008;SDS011;59542;37.950;-122.338;2022-08-03T06:06:24;7.45;;;4.15;;
70008;SDS011;59542;37.950;-122.338;2022-08-03T06:08:50;5.95;;;4.03;;
70008;SDS011;59542;37.950;-122.338;2022-08-03T06:11:18;7.22;;;4.68;;
70008;SDS011;59542;37.950;-122.338;2022-08-03T06:13:44;5.53;;;4.20;;
70008;SDS011;59542;37.950;-122.338;2022-08-03T06:16:10;6.30;;;4.50;;
70008;SDS011;59542;37.950;-122.338;2022-08-03T06:18:37;5.38;;;3.92;;
70008;SDS011;59542;37.950;-122.338;2022-08-03T06:21:04;7.03;;;4.72;;
70008;SDS011;59542;37.950;-122.338;2022-08-03T06:23:31;6.95;;;5.00;;
70008;SDS011;59542;37.950;-122.338;2022-08-03T06:25:57;6.00;;;4.63;;
70008;SDS011;59542;37.950;-122.338;2022-08-03T06:28:23;6.53;;;4.25;;
70008;SDS011;59542;37.950;-122.338;2022-08-03T06:30:49;6.78;;;3.95;;
70008;SDS011;59542;37.950;-122.338;2022-08-03T06:33:16;5.55;;;3.75;;
70008;SDS011;59542;37.950;-122.338;2022-08-03T06:35:42;5.68;;;3.90;;
70008;SDS011;59542;37.950;-122.338;2022-08-03T06:38:08;4.90;;;4.07;;
70008;SDS011;59542;37.950;-122.338;2022-08-03T06:40:35;6.00;;;4.00;;
70008;SDS011;59542;37.950;-122.338;2022-08-03T06:43:04;7.25;;;4.10;;
70008;SDS011;59542;37.950;-122.338;2022-08-03T06:45:32;7.10;;;3.83;;
70008;SDS011;59542;37.950;-122.338;2022-08-03T06:48:05;4.88;;;3.50;;
70008;SDS011;59542;37.950;-122.338;2022-08-03T06:50:33;8.30;;;4.28;;
70008;SDS011;59542;37.950;-122.338;2022-08-03T06:53:01;5.30;;;4.05;;
70008;SDS011;59542;37.950;-122.338;2022-08-03T06:55:28;5.20;;;3.80;;
70008;SDS011;59542;37.950;-122.338;2022-08-03T06:57:54;5.05;;;3.97;;
70008;SDS011;59542;37.950;-122.338;2022-08-03T07:00:21;6.95;;;4.63;;
70008;SDS011;59542;37.950;-122.338;2022-08-03T07:02:48;5.93;;;4.03;;
70008;SDS011;59542;37.950;-122.338;2022-08-03T07:05:14;4.47;;;4.00;;
70008;SDS011;59542;37.950;-122.338;2022-08-03T07:07:41;5.45;;;4.35;;
70008;SDS011;59542;37.950;-122.338;2022-08-03T07:10:07;4.65;;;3.80;;
70008;SDS011;59542;37.950;-122.338;2022-08-03T07:12:38;4.15;;;3.50;;
70008;SDS011;59542;37.950;-122.338;2022-08-03T07:15:06;7.00;;;4.20;;
70008;SDS011;59542;37.950;-122.338;2022-08-03T07:17:33;4.88;;;3.72;;
70008;SDS011;59542;37.950;-122.338;2022-08-03T07:20:01;7.07;;;4.38;;
70008;SDS011;59542;37.950;-122.338;2022-08-03T07:22:30;4.13;;;3.60;;
70008;SDS011;59542;37.950;-122.338;2022-08-03T07:24:56;6.30;;;3.88;;
70008;SDS011;59542;37.950;-122.338;2022-08-03T07:27:23;6.22;;;3.90;;
70008;SDS011;59542;37.950;-122.338;2022-08-03T07:29:51;4.72;;;4.22;;
70008;SDS011;59542;37.950;-122.338;2022-08-03T07:32:17;4.78;;;3.70;;
70008;SDS011;59542;37.950;-122.338;2022-08-03T07:34:43;6.95;;;3.90;;
70008;SDS011;59542;37.950;-122.338;2022-08-03T07:37:09;5.45;;;4.13;;
70008;SDS011;59542;37.950;-122.338;2022-08-03T07:39:35;5.53;;;4.10;;
70008;SDS011;59542;37.950;-122.338;2022-08-03T07:42:02;5.07;;;4.25;;
70008;SDS011;59542;37.950;-122.338;2022-08-03T07:44:28;4.15;;;3.65;;
70008;SDS011;59542;37.950;-122.338;2022-08-03T07:46:54;4.78;;;3.70;;
70008;SDS011;59542;37.950;-122.338;2022-08-03T07:49:21;5.68;;;3.60;;
70008;SDS011;59542;37.950;-122.338;2022-08-03T07:51:47;4.28;;;3.65;;
70008;SDS011;59542;37.950;-122.338;2022-08-03T07:54:33;5.68;;;3.58;;
70008;SDS011;59542;37.950;-122.338;2022-08-03T07:57:00;4.85;;;3.53;;
70008;SDS011;59542;37.950;-122.338;2022-08-03T07:59:26;3.50;;;3.15;;
70008;SDS011;59542;37.950;-122.338;2022-08-03T08:01:52;3.97;;;3.17;;
70008;SDS011;59542;37.950;-122.338;2022-08-03T08:04:18;3.95;;;3.55;;
70008;SDS011;59542;37.950;-122.338;2022-08-03T08:06:44;5.15;;;4.00;;
70008;SDS011;59542;37.950;-122.338;2022-08-03T08:09:10;5.13;;;3.67;;
70008;SDS011;59542;37.950;-122.338;2022-08-03T08:11:37;3.92;;;3.28;;
70008;SDS011;59542;37.950;-122.338;2022-08-03T08:14:03;4.30;;;3.83;;
70008;SDS011;59542;37.950;-122.338;2022-08-03T08:16:29;5.80;;;3.72;;
70008;SDS011;59542;37.950;-122.338;2022-08-03T08:18:56;5.55;;;3.35;;
70008;SDS011;59542;37.950;-122.338;2022-08-03T08:21:22;4.82;;;3.70;;
70008;SDS011;59542;37.950;-122.338;2022-08-03T08:23:48;4.70;;;4.03;;
70008;SDS011;59542;37.950;-122.338;2022-08-03T08:26:14;4.78;;;4.30;;
70008;SDS011;59542;37.950;-122.338;2022-08-03T08:28:40;6.43;;;4.45;;
70008;SDS011;59542;37.950;-122.338;2022-08-03T08:31:07;4.60;;;3.95;;
70008;SDS011;59542;37.950;-122.338;2022-08-03T08:33:33;4.25;;;3.85;;
70008;SDS011;59542;37.950;-122.338;2022-08-03T08:36:00;4.50;;;3.38;;
70008;SDS011;59542;37.950;-122.338;2022-08-03T08:38:26;4.30;;;3.90;;
70008;SDS011;59542;37.950;-122.338;2022-08-03T08:40:55;4.60;;;3.70;;
70008;SDS011;59542;37.950;-122.338;2022-08-03T08:43:22;4.60;;;4.05;;
70008;SDS011;59542;37.950;-122.338;2022-08-03T08:45:48;7.05;;;4.15;;
70008;SDS011;59542;37.950;-122.338;2022-08-03T08:48:16;4.50;;;3.65;;
70008;SDS011;59542;37.950;-122.338;2022-08-03T08:50:47;4.80;;;3.47;;
70008;SDS011;59542;37.950;-122.338;2022-08-03T08:53:16;3.58;;;3.28;;
70008;SDS011;59542;37.950;-122.338;2022-08-03T08:55:45;4.47;;;3.50;;
70008;SDS011;59542;37.950;-122.338;2022-08-03T08:58:11;4.00;;;3.08;;
70008;SDS011;59542;37.950;-122.338;2022-08-03T09:00:43;4.30;;;3.78;;
70008;SDS011;59542;37.950;-122.338;2022-08-03T09:03:12;4.47;;;3.25;;
70008;SDS011;59542;37.950;-122.338;2022-08-03T09:05:41;5.10;;;4.00;;
70008;SDS011;59542;37.950;-122.338;2022-08-03T09:08:09;4.55;;;3.55;;
70008;SDS011;59542;37.950;-122.338;2022-08-03T09:10:35;5.50;;;3.28;;
70008;SDS011;59542;37.950;-122.338;2022-08-03T09:13:01;4.72;;;3.53;;
70008;SDS011;59542;37.950;-122.338;2022-08-03T09:15:31;3.40;;;3.05;;
70008;SDS011;59542;37.950;-122.338;2022-08-03T09:18:01;3.67;;;3.03;;
70008;SDS011;59542;37.950;-122.338;2022-08-03T09:20:29;5.18;;;3.08;;
70008;SDS011;59542;37.950;-122.338;2022-08-03T09:22:58;3.85;;;3.30;;
70008;SDS011;59542;37.950;-122.338;2022-08-03T09:25:36;3.17;;;2.55;;
70008;SDS011;59542;37.950;-122.338;2022-08-03T09:28:11;4.82;;;3.05;;
70008;SDS011;59542;37.950;-122.338;2022-08-03T09:30:40;4.82;;;2.90;;
70008;SDS011;59542;37.950;-122.338;2022-08-03T09:33:09;3.10;;;2.80;;
70008;SDS011;59542;37.950;-122.338;2022-08-03T09:35:40;4.72;;;3.40;;
70008;SDS011;59542;37.950;-122.338;2022-08-03T09:38:08;2.90;;;2.60;;
70008;SDS011;59542;37.950;-122.338;2022-08-03T09:40:37;2.97;;;2.67;;
70008;SDS011;59542;37.950;-122.338;2022-08-03T09:43:04;3.92;;;3.00;;
70008;SDS011;59542;37.950;-122.338;2022-08-03T09:45:32;3.78;;;2.78;;
70008;SDS011;59542;37.950;-122.338;2022-08-03T09:48:21;4.38;;;3.30;;
70008;SDS011;59542;37.950;-122.338;2022-08-03T09:50:54;3.60;;;2.63;;
70008;SDS011;59542;37.950;-122.338;2022-08-03T09:53:20;3.17;;;2.85;;
70008;SDS011;59542;37.950;-122.338;2022-08-03T09:58:16;3.38;;;2.90;;
70008;SDS011;59542;37.950;-122.338;2022-08-03T10:03:25;2.92;;;1.95;;
70008;SDS011;59542;37.950;-122.338;2022-08-03T10:05:53;3.38;;;2.50;;
70008;SDS011;59542;37.950;-122.338;2022-08-03T10:08:20;3.47;;;2.55;;
70008;SDS011;59542;37.950;-122.338;2022-08-03T10:10:47;2.40;;;2.20;;
70008;SDS011;59542;37.950;-122.338;2022-08-03T10:13:16;2.40;;;2.00;;
70008;SDS011;59542;37.950;-122.338;2022-08-03T10:15:44;2.70;;;2.35;;
70008;SDS011;59542;37.950;-122.338;2022-08-03T10:18:11;2.88;;;2.38;;
70008;SDS011;59542;37.950;-122.338;2022-08-03T10:21:10;3.28;;;2.13;;
70008;SDS011;59542;37.950;-122.338;2022-08-03T10:23:33;2.33;;;1.97;;
70008;SDS011;59542;37.950;-122.338;2022-08-03T10:26:01;4.45;;;2.63;;
70008;SDS011;59542;37.950;-122.338;2022-08-03T10:28:33;3.90;;;2.63;;
70008;SDS011;59542;37.950;-122.338;2022-08-03T10:31:02;3.45;;;2.30;;
70008;SDS011;59542;37.950;-122.338;2022-08-03T10:33:33;2.75;;;2.45;;
70008;SDS011;59542;37.950;-122.338;2022-08-03T10:36:06;4.05;;;2.97;;
70008;SDS011;59542;37.950;-122.338;2022-08-03T10:38:37;6.90;;;2.88;;
70008;SDS011;59542;37.950;-122.338;2022-08-03T10:41:10;3.83;;;2.20;;
70008;SDS011;59542;37.950;-122.338;2022-08-03T10:46:43;4.53;;;3.00;;
70008;SDS011;59542;37.950;-122.338;2022-08-03T10:49:12;2.88;;;2.33;;
70008;SDS011;59542;37.950;-122.338;2022-08-03T10:51:41;2.35;;;2.15;;
70008;SDS011;59542;37.950;-122.338;2022-08-03T10:57:45;3.60;;;2.55;;
70008;SDS011;59542;37.950;-122.338;2022-08-03T11:00:16;2.35;;;2.00;;
70008;SDS011;59542;37.950;-122.338;2022-08-03T11:05:36;3.78;;;2.40;;
70008;SDS011;59542;37.950;-122.338;2022-08-03T11:08:21;3.13;;;2.67;;
70008;SDS011;59542;37.950;-122.338;2022-08-03T11:11:00;2.08;;;1.88;;
70008;SDS011;59542;37.950;-122.338;2022-08-03T11:13:28;2.95;;;2.30;;
70008;SDS011;59542;37.950;-122.338;2022-08-03T11:15:58;3.25;;;2.25;;
70008;SDS011;59542;37.950;-122.338;2022-08-03T11:18:26;2.38;;;1.88;;
70008;SDS011;59542;37.950;-122.338;2022-08-03T11:20:53;2.83;;;2.50;;
70008;SDS011;59542;37.950;-122.338;2022-08-03T11:26:16;3.08;;;2.40;;
70008;SDS011;59542;37.950;-122.338;2022-08-03T11:28:44;5.18;;;2.30;;
70008;SDS011;59542;37.950;-122.338;2022-08-03T11:31:57;2.40;;;2.00;;
70008;SDS011;59542;37.950;-122.338;2022-08-03T11:39:40;3.08;;;2.13;;
70008;SDS011;59542;37.950;-122.338;2022-08-03T11:44:55;2.72;;;2.20;;
70008;SDS011;59542;37.950;-122.338;2022-08-03T11:47:24;2.83;;;2.53;;
70008;SDS011;59542;37.950;-122.338;2022-08-03T11:49:56;3.50;;;2.38;;
70008;SDS011;59542;37.950;-122.338;2022-08-03T11:52:26;2.63;;;2.17;;
70008;SDS011;59542;37.950;-122.338;2022-08-03T11:54:58;4.47;;;2.42;;
70008;SDS011;59542;37.950;-122.338;2022-08-03T11:57:28;3.50;;;2.20;;
70008;SDS011;59542;37.950;-122.338;2022-08-03T11:59:58;2.63;;;2.10;;
70008;SDS011;59542;37.950;-122.338;2022-08-03T12:02:25;2.45;;;2.08;;
70008;SDS011;59542;37.950;-122.338;2022-08-03T12:05:00;2.20;;;1.70;;
70008;SDS011;59542;37.950;-122.338;2022-08-03T12:07:26;2.97;;;1.77;;
70008;SDS011;59542;37.950;-122.338;2022-08-03T12:10:12;2.72;;;2.38;;
70008;SDS011;59542;37.950;-122.338;2022-08-03T12:12:40;2.30;;;1.70;;
70008;SDS011;59542;37.950;-122.338;2022-08-03T12:15:07;2.30;;;2.10;;
70008;SDS011;59542;37.950;-122.338;2022-08-03T12:17:34;2.88;;;2.30;;
70008;SDS011;59542;37.950;-122.338;2022-08-03T12:20:03;4.20;;;2.55;;
70008;SDS011;59542;37.950;-122.338;2022-08-03T12:22:34;2.35;;;1.90;;
70008;SDS011;59542;37.950;-122.338;2022-08-03T12:25:07;2.75;;;2.13;;
70008;SDS011;59542;37.950;-122.338;2022-08-03T12:27:34;2.90;;;2.30;;
70008;SDS011;59542;37.950;-122.338;2022-08-03T12:30:01;4.05;;;2.50;;
70008;SDS011;59542;37.950;-122.338;2022-08-03T12:32:28;2.83;;;2.30;;
70008;SDS011;59542;37.950;-122.338;2022-08-03T12:34:56;4.05;;;2.95;;
70008;SDS011;59542;37.950;-122.338;2022-08-03T12:37:28;4.00;;;2.63;;
70008;SDS011;59542;37.950;-122.338;2022-08-03T12:39:56;4.00;;;2.92;;
70008;SDS011;59542;37.950;-122.338;2022-08-03T12:42:29;2.42;;;2.20;;
70008;SDS011;59542;37.950;-122.338;2022-08-03T12:44:58;3.13;;;2.15;;
70008;SDS011;59542;37.950;-122.338;2022-08-03T12:47:25;3.08;;;2.50;;
70008;SDS011;59542;37.950;-122.338;2022-08-03T12:49:51;3.85;;;2.33;;
70008;SDS011;59542;37.950;-122.338;2022-08-03T12:52:19;3.58;;;2.63;;
70008;SDS011;59542;37.950;-122.338;2022-08-03T12:54:56;5.03;;;2.08;;
70008;SDS011;59542;37.950;-122.338;2022-08-03T12:57:24;3.78;;;1.92;;
70008;SDS011;59542;37.950;-122.338;2022-08-03T12:59:50;3.75;;;2.70;;
70008;SDS011;59542;37.950;-122.338;2022-08-03T13:02:25;5.35;;;3.30;;
70008;SDS011;59542;37.950;-122.338;2022-08-03T13:04:52;3.63;;;2.50;;
70008;SDS011;59542;37.950;-122.338;2022-08-03T13:07:19;3.08;;;2.22;;
70008;SDS011;59542;37.950;-122.338;2022-08-03T13:09:50;3.72;;;2.55;;
70008;SDS011;59542;37.950;-122.338;2022-08-03T13:12:18;2.67;;;2.22;;
70008;SDS011;59542;37.950;-122.338;2022-08-03T13:14:47;4.22;;;2.65;;
70008;SDS011;59542;37.950;-122.338;2022-08-03T13:17:16;3.15;;;2.47;;
70008;SDS011;59542;37.950;-122.338;2022-08-03T13:19:43;3.50;;;2.47;;
70008;SDS011;59542;37.950;-122.338;2022-08-03T13:22:16;6.07;;;2.88;;
70008;SDS011;59542;37.950;-122.338;2022-08-03T13:24:43;3.50;;;2.75;;
70008;SDS011;59542;37.950;-122.338;2022-08-03T13:27:11;2.67;;;1.65;;
70008;SDS011;59542;37.950;-122.338;2022-08-03T13:29:38;2.28;;;1.40;;
70008;SDS011;59542;37.950;-122.338;2022-08-03T13:32:05;1.40;;;1.20;;
70008;SDS011;59542;37.950;-122.338;2022-08-03T13:34:32;1.73;;;1.38;;
70008;SDS011;59542;37.950;-122.338;2022-08-03T13:36:58;2.70;;;1.88;;
70008;SDS011;59542;37.950;-122.338;2022-08-03T13:39:24;3.80;;;2.25;;
70008;SDS011;59542;37.950;-122.338;2022-08-03T13:41:50;3.00;;;2.00;;
70008;SDS011;59542;37.950;-122.338;2022-08-03T13:44:17;1.90;;;1.50;;
70008;SDS011;59542;37.950;-122.338;2022-08-03T13:46:44;1.70;;;1.30;;
70008;SDS011;59542;37.950;-122.338;2022-08-03T13:49:11;1.38;;;1.13;;
70008;SDS011;59542;37.950;-122.338;2022-08-03T13:51:37;2.95;;;1.00;;
70008;SDS011;59542;37.950;-122.338;2022-08-03T13:54:04;3.00;;;1.30;;
70008;SDS011;59542;37.950;-122.338;2022-08-03T13:56:30;1.33;;;0.82;;
70008;SDS011;59542;37.950;-122.338;2022-08-03T13:58:56;1.35;;;0.90;;
70008;SDS011;59542;37.950;-122.338;2022-08-03T14:01:23;1.58;;;1.10;;
70008;SDS011;59542;37.950;-122.338;2022-08-03T14:03:50;2.33;;;0.90;;
70008;SDS011;59542;37.950;-122.338;2022-08-03T14:06:20;1.67;;;1.15;;
70008;SDS011;59542;37.950;-122.338;2022-08-03T14:08:48;1.23;;;1.00;;
70008;SDS011;59542;37.950;-122.338;2022-08-03T14:11:15;1.30;;;1.05;;
70008;SDS011;59542;37.950;-122.338;2022-08-03T14:13:42;4.00;;;1.05;;
70008;SDS011;59542;37.950;-122.338;2022-08-03T14:16:09;1.10;;;0.90;;
70008;SDS011;59542;37.950;-122.338;2022-08-03T14:18:35;1.98;;;1.05;;
70008;SDS011;59542;37.950;-122.338;2022-08-03T14:21:02;1.02;;;0.80;;
70008;SDS011;59542;37.950;-122.338;2022-08-03T14:23:29;0.82;;;0.75;;
70008;SDS011;59542;37.950;-122.338;2022-08-03T14:25:56;0.80;;;0.80;;
70008;SDS011;59542;37.950;-122.338;2022-08-03T14:28:22;0.90;;;0.60;;
70008;SDS011;59542;37.950;-122.338;2022-08-03T14:30:49;3.20;;;0.82;;
70008;SDS011;59542;37.950;-122.338;2022-08-03T14:33:17;1.48;;;0.90;;
70008;SDS011;59542;37.950;-122.338;2022-08-03T14:35:43;1.10;;;0.93;;
70008;SDS011;59542;37.950;-122.338;2022-08-03T14:38:09;0.90;;;0.73;;
70008;SDS011;59542;37.950;-122.338;2022-08-03T14:40:35;0.80;;;0.73;;
70008;SDS011;59542;37.950;-122.338;2022-08-03T14:43:01;0.77;;;0.75;;
70008;SDS011;59542;37.950;-122.338;2022-08-03T14:45:28;1.65;;;1.00;;
70008;SDS011;59542;37.950;-122.338;2022-08-03T14:47:54;1.70;;;1.00;;
70008;SDS011;59542;37.950;-122.338;2022-08-03T14:50:20;0.65;;;0.65;;
70008;SDS011;59542;37.950;-122.338;2022-08-03T14:52:47;1.67;;;0.80;;
70008;SDS011;59542;37.950;-122.338;2022-08-03T14:55:13;0.88;;;0.88;;
70008;SDS011;59542;37.950;-122.338;2022-08-03T14:57:39;1.30;;;1.00;;